sensor_id;sensor_type;location;lat;lon;timestamp;pressure;altitude;pressure_sealevel;temperature;humidity
11085;BME280;5596;46.826;8.650;2023-04-29T00:01:02;96167.53;;;13.62;100.00
11085;BME280;5596;46.826;8.650;2023-04-29T00:03:29;96167.63;;;13.68;100.00
11085;BME280;5596;46.826;8.650;2023-04-29T00:05:56;96166.81;;;13.67;100.00
11085;BME280;5596;46.826;8.650;2023-04-29T00:08:25;96168.38;;;13.63;100.00
11085;BME280;5596;46.826;8.650;2023-04-29T00:10:51;96165.91;;;13.61;100.00
11085;BME280;5596;46.826;8.650;2023-04-29T00:13:18;96161.03;;;13.63;100.00
11085;BME280;5596;46.826;8.650;2023-04-29T00:15:45;96160.56;;;13.67;100.00
11085;BME280;5596;46.826;8.650;2023-04-29T00:18:12;96176.84;;;13.67;100.00
11085;BME280;5596;46.826;8.650;2023-04-29T00:20:40;96181.72;;;13.70;100.00
11085;BME280;5596;46.826;8.650;2023-04-29T00:23:07;96179.59;;;13.72;100.00
11085;BME280;5596;46.826;8.650;2023-04-29T00:25:35;96183.69;;;13.74;100.00
11085;BME280;5596;46.826;8.650;2023-04-29T00:28:03;96169.56;;;13.72;100.00
11085;BME280;5596;46.826;8.650;2023-04-29T00:30:30;96156.25;;;13.71;100.00
11085;BME280;5596;46.826;8.650;2023-04-29T00:32:57;96146.41;;;13.64;100.00
11085;BME280;5596;46.826;8.650;2023-04-29T00:35:25;96134.75;;;13.64;100.00
11085;BME280;5596;46.826;8.650;2023-04-29T00:37:51;96146.16;;;13.66;100.00
11085;BME280;5596;46.826;8.650;2023-04-29T00:40:18;96137.41;;;13.59;100.00
11085;BME280;5596;46.826;8.650;2023-04-29T00:42:46;96128.38;;;13.53;100.00
11085;BME280;5596;46.826;8.650;2023-04-29T00:45:13;96131.03;;;13.48;100.00
11085;BME280;5596;46.826;8.650;2023-04-29T00:47:40;96122.09;;;13.48;100.00
11085;BME280;5596;46.826;8.650;2023-04-29T00:50:08;96109.84;;;13.45;100.00
11085;BME280;5596;46.826;8.650;2023-04-29T00:52:37;96104.94;;;13.42;100.00
11085;BME280;5596;46.826;8.650;2023-04-29T00:55:04;96116.28;;;13.39;100.00
11085;BME280;5596;46.826;8.650;2023-04-29T00:57:32;96123.84;;;13.37;100.00
11085;BME280;5596;46.826;8.650;2023-04-29T01:00:00;96115.16;;;13.35;100.00
11085;BME280;5596;46.826;8.650;2023-04-29T01:02:29;96115.78;;;13.42;100.00
11085;BME280;5596;46.826;8.650;2023-04-29T01:04:55;96113.81;;;13.38;100.00
11085;BME280;5596;46.826;8.650;2023-04-29T01:07:23;96103.75;;;13.33;100.00
11085;BME280;5596;46.826;8.650;2023-04-29T01:09:56;96105.31;;;13.29;100.00
11085;BME280;5596;46.826;8.650;2023-04-29T01:12:31;96095.53;;;13.28;100.00
11085;BME280;5596;46.826;8.650;2023-04-29T01:15:02;96104.25;;;13.30;100.00
11085;BME280;5596;46.826;8.650;2023-04-29T01:17:30;96112.94;;;13.32;100.00
11085;BME280;5596;46.826;8.650;2023-04-29T01:20:02;96117.31;;;13.33;100.00
11085;BME280;5596;46.826;8.650;2023-04-29T01:22:29;96117.06;;;13.35;100.00
11085;BME280;5596;46.826;8.650;2023-04-29T01:24:58;96125.19;;;13.35;100.00
11085;BME280;5596;46.826;8.650;2023-04-29T01:27:27;96141.19;;;13.36;100.00
11085;BME280;5596;46.826;8.650;2023-04-29T01:30:04;96135.22;;;13.34;100.00
11085;BME280;5596;46.826;8.650;2023-04-29T01:32:40;96133.06;;;13.36;100.00
11085;BME280;5596;46.826;8.650;2023-04-29T01:35:10;96116.28;;;13.39;100.00
11085;BME280;5596;46.826;8.650;2023-04-29T01:37:46;96108.66;;;13.36;100.00
11085;BME280;5596;46.826;8.650;2023-04-29T01:40:17;96122.78;;;13.38;100.00
11085;BME280;5596;46.826;8.650;2023-04-29T01:43:02;96117.97;;;13.45;100.00
11085;BME280;5596;46.826;8.650;2023-04-29T01:45:32;96117.09;;;13.40;100.00
11085;BME280;5596;46.826;8.650;2023-04-29T01:47:59;96109.78;;;13.40;100.00
11085;BME280;5596;46.826;8.650;2023-04-29T01:50:29;96107.56;;;13.37;100.00
11085;BME280;5596;46.826;8.650;2023-04-29T01:53:05;96113.78;;;13.33;100.00
11085;BME280;5596;46.826;8.650;2023-04-29T01:55:34;96123.81;;;13.32;100.00
11085;BME280;5596;46.826;8.650;2023-04-29T01:58:11;96137.94;;;13.34;100.00
11085;BME280;5596;46.826;8.650;2023-04-29T02:01:07;96153.69;;;13.37;100.00
11085;BME280;5596;46.826;8.650;2023-04-29T02:03:36;96151.50;;;13.34;100.00
11085;BME280;5596;46.826;8.650;2023-04-29T02:06:06;96148.94;;;13.27;100.00
11085;BME280;5596;46.826;8.650;2023-04-29T02:08:34;96138.53;;;13.19;100.00
11085;BME280;5596;46.826;8.650;2023-04-29T02:11:02;96111.38;;;13.14;100.00
11085;BME280;5596;46.826;8.650;2023-04-29T02:13:39;96114.75;;;13.05;100.00
11085;BME280;5596;46.826;8.650;2023-04-29T02:16:08;96120.94;;;13.00;100.00
11085;BME280;5596;46.826;8.650;2023-04-29T02:18:37;96117.06;;;12.96;100.00
11085;BME280;5596;46.826;8.650;2023-04-29T02:21:04;96112.41;;;12.92;100.00
11085;BME280;5596;46.826;8.650;2023-04-29T02:23:33;96102.38;;;12.92;100.00
11085;BME280;5596;46.826;8.650;2023-04-29T02:26:01;96079.81;;;12.86;100.00
11085;BME280;5596;46.826;8.650;2023-04-29T02:28:30;96093.59;;;12.85;100.00
11085;BME280;5596;46.826;8.650;2023-04-29T02:30:57;96107.53;;;12.94;100.00
11085;BME280;5596;46.826;8.650;2023-04-29T02:33:26;96121.31;;;13.09;100.00
11085;BME280;5596;46.826;8.650;2023-04-29T02:35:53;96113.88;;;13.21;100.00
11085;BME280;5596;46.826;8.650;2023-04-29T02:38:21;96103.63;;;13.23;100.00
11085;BME280;5596;46.826;8.650;2023-04-29T02:40:48;96103.88;;;13.21;100.00
11085;BME280;5596;46.826;8.650;2023-04-29T02:43:16;96101.34;;;13.15;100.00
11085;BME280;5596;46.826;8.650;2023-04-29T02:45:43;96083.28;;;13.04;100.00
11085;BME280;5596;46.826;8.650;2023-04-29T02:48:10;96090.78;;;12.97;100.00
11085;BME280;5596;46.826;8.650;2023-04-29T02:50:39;96091.28;;;12.94;100.00
11085;BME280;5596;46.826;8.650;2023-04-29T02:53:06;96099.69;;;12.92;100.00
11085;BME280;5596;46.826;8.650;2023-04-29T02:55:33;96097.94;;;12.86;100.00
11085;BME280;5596;46.826;8.650;2023-04-29T02:58:05;96089.53;;;12.82;100.00
11085;BME280;5596;46.826;8.650;2023-04-29T03:00:34;96084.59;;;12.79;100.00
11085;BME280;5596;46.826;8.650;2023-04-29T03:03:00;96082.91;;;12.73;100.00
11085;BME280;5596;46.826;8.650;2023-04-29T03:05:27;96092.81;;;12.68;100.00
11085;BME280;5596;46.826;8.650;2023-04-29T03:07:54;96101.28;;;12.71;100.00
11085;BME280;5596;46.826;8.650;2023-04-29T03:10:21;96111.13;;;12.77;100.00
11085;BME280;5596;46.826;8.650;2023-04-29T03:12:48;96117.59;;;12.76;100.00
11085;BME280;5596;46.826;8.650;2023-04-29T03:15:15;96122.94;;;12.71;100.00
11085;BME280;5596;46.826;8.650;2023-04-29T03:17:44;96113.69;;;12.67;100.00
11085;BME280;5596;46.826;8.650;2023-04-29T03:20:12;96109.25;;;12.61;100.00
11085;BME280;5596;46.826;8.650;2023-04-29T03:22:39;96100.25;;;12.56;100.00
11085;BME280;5596;46.826;8.650;2023-04-29T03:25:07;96121.09;;;12.55;100.00
11085;BME280;5596;46.826;8.650;2023-04-29T03:27:36;96111.38;;;12.59;100.00
11085;BME280;5596;46.826;8.650;2023-04-29T03:30:03;96119.59;;;12.64;100.00
11085;BME280;5596;46.826;8.650;2023-04-29T03:32:32;96120.91;;;12.62;100.00
11085;BME280;5596;46.826;8.650;2023-04-29T03:35:00;96117.31;;;12.56;100.00
11085;BME280;5596;46.826;8.650;2023-04-29T03:37:35;96113.97;;;12.49;100.00
11085;BME280;5596;46.826;8.650;2023-04-29T03:40:26;96105.41;;;12.57;100.00
11085;BME280;5596;46.826;8.650;2023-04-29T03:42:53;96111.00;;;12.50;100.00
11085;BME280;5596;46.826;8.650;2023-04-29T03:45:20;96115.69;;;12.55;100.00
11085;BME280;5596;46.826;8.650;2023-04-29T03:47:47;96111.31;;;12.54;100.00
11085;BME280;5596;46.826;8.650;2023-04-29T03:50:18;96113.84;;;12.61;100.00
11085;BME280;5596;46.826;8.650;2023-04-29T03:52:46;96118.44;;;12.60;100.00
11085;BME280;5596;46.826;8.650;2023-04-29T03:55:15;96116.50;;;12.56;100.00
11085;BME280;5596;46.826;8.650;2023-04-29T03:57:43;96120.44;;;12.48;100.00
11085;BME280;5596;46.826;8.650;2023-04-29T04:00:11;96117.16;;;12.46;100.00
11085;BME280;5596;46.826;8.650;2023-04-29T04:02:42;96114.94;;;12.43;100.00
11085;BME280;5596;46.826;8.650;2023-04-29T04:05:09;96128.47;;;12.43;100.00
11085;BME280;5596;46.826;8.650;2023-04-29T04:07:40;96131.47;;;12.41;100.00
11085;BME280;5596;46.826;8.650;2023-04-29T04:10:33;96124.53;;;12.34;100.00
11085;BME280;5596;46.826;8.650;2023-04-29T04:13:04;96119.94;;;12.34;100.00
11085;BME280;5596;46.826;8.650;2023-04-29T04:15:31;96117.41;;;12.28;100.00
11085;BME280;5596;46.826;8.650;2023-04-29T04:17:58;96128.81;;;12.30;100.00
11085;BME280;5596;46.826;8.650;2023-04-29T04:20:26;96143.50;;;12.34;100.00
11085;BME280;5596;46.826;8.650;2023-04-29T04:22:55;96143.41;;;12.29;100.00
11085;BME280;5596;46.826;8.650;2023-04-29T04:25:26;96148.66;;;12.35;100.00
11085;BME280;5596;46.826;8.650;2023-04-29T04:27:58;96159.72;;;12.34;100.00
11085;BME280;5596;46.826;8.650;2023-04-29T04:30:46;96163.25;;;12.34;100.00
11085;BME280;5596;46.826;8.650;2023-04-29T04:33:14;96166.25;;;12.33;100.00
11085;BME280;5596;46.826;8.650;2023-04-29T04:35:45;96168.44;;;12.36;100.00
11085;BME280;5596;46.826;8.650;2023-04-29T04:38:14;96159.72;;;12.34;100.00
11085;BME280;5596;46.826;8.650;2023-04-29T04:40:45;96167.84;;;12.34;100.00
11085;BME280;5596;46.826;8.650;2023-04-29T04:43:28;96162.59;;;12.27;100.00
11085;BME280;5596;46.826;8.650;2023-04-29T04:45:55;96161.13;;;12.20;100.00
11085;BME280;5596;46.826;8.650;2023-04-29T04:48:26;96154.59;;;12.16;100.00
11085;BME280;5596;46.826;8.650;2023-04-29T04:50:56;96164.00;;;12.13;100.00
11085;BME280;5596;46.826;8.650;2023-04-29T04:53:24;96163.41;;;12.11;100.00
11085;BME280;5596;46.826;8.650;2023-04-29T04:55:57;96159.31;;;12.08;100.00
11085;BME280;5596;46.826;8.650;2023-04-29T04:58:26;96162.59;;;12.10;100.00
11085;BME280;5596;46.826;8.650;2023-04-29T05:00:53;96156.59;;;12.08;100.00
11085;BME280;5596;46.826;8.650;2023-04-29T05:03:20;96168.00;;;12.10;100.00
11085;BME280;5596;46.826;8.650;2023-04-29T05:05:51;96160.47;;;12.12;100.00
11085;BME280;5596;46.826;8.650;2023-04-29T05:08:20;96158.81;;;12.11;100.00
11085;BME280;5596;46.826;8.650;2023-04-29T05:10:48;96153.34;;;12.06;100.00
11085;BME280;5596;46.826;8.650;2023-04-29T05:13:19;96159.31;;;12.08;100.00
11085;BME280;5596;46.826;8.650;2023-04-29T05:15:46;96161.47;;;12.06;100.00
11085;BME280;5596;46.826;8.650;2023-04-29T05:18:18;96155.22;;;12.06;100.00
11085;BME280;5596;46.826;8.650;2023-04-29T05:20:48;96158.16;;;12.04;100.00
11085;BME280;5596;46.826;8.650;2023-04-29T05:23:15;96154.72;;;12.09;100.00
11085;BME280;5596;46.826;8.650;2023-04-29T05:25:44;96162.28;;;12.07;100.00
11085;BME280;5596;46.826;8.650;2023-04-29T05:28:13;96157.19;;;12.10;100.00
11085;BME280;5596;46.826;8.650;2023-04-29T05:30:41;96163.56;;;12.04;100.00
11085;BME280;5596;46.826;8.650;2023-04-29T05:33:09;96161.13;;;12.03;100.00
11085;BME280;5596;46.826;8.650;2023-04-29T05:35:36;96150.06;;;12.04;100.00
11085;BME280;5596;46.826;8.650;2023-04-29T05:38:03;96153.56;;;12.05;100.00
11085;BME280;5596;46.826;8.650;2023-04-29T05:40:34;96159.88;;;12.10;100.00
11085;BME280;5596;46.826;8.650;2023-04-29T05:43:35;96168.00;;;12.10;100.00
11085;BME280;5596;46.826;8.650;2023-04-29T05:46:02;96171.97;;;12.20;100.00
11085;BME280;5596;46.826;8.650;2023-04-29T05:48:28;96163.34;;;12.23;100.00
11085;BME280;5596;46.826;8.650;2023-04-29T05:50:55;96170.41;;;12.24;100.00
11085;BME280;5596;46.826;8.650;2023-04-29T05:53:23;96177.47;;;12.25;100.00
11085;BME280;5596;46.826;8.650;2023-04-29T05:55:51;96178.84;;;12.27;100.00
11085;BME280;5596;46.826;8.650;2023-04-29T05:58:19;96175.91;;;12.29;100.00
11085;BME280;5596;46.826;8.650;2023-04-29T06:00:48;96181.31;;;12.29;100.00
11085;BME280;5596;46.826;8.650;2023-04-29T06:03:19;96183.69;;;12.25;100.00
11085;BME280;5596;46.826;8.650;2023-04-29T06:05:51;96173.78;;;12.31;100.00
11085;BME280;5596;46.826;8.650;2023-04-29T06:08:30;96166.53;;;12.20;100.00
11085;BME280;5596;46.826;8.650;2023-04-29T06:11:02;96167.94;;;12.22;100.00
11085;BME280;5596;46.826;8.650;2023-04-29T06:13:30;96174.84;;;12.30;100.00
11085;BME280;5596;46.826;8.650;2023-04-29T06:15:58;96172.72;;;12.32;100.00
11085;BME280;5596;46.826;8.650;2023-04-29T06:18:29;96165.72;;;12.36;100.00
11085;BME280;5596;46.826;8.650;2023-04-29T06:20:57;96159.09;;;12.43;100.00
11085;BME280;5596;46.826;8.650;2023-04-29T06:23:24;96168.59;;;12.46;100.00
11085;BME280;5596;46.826;8.650;2023-04-29T06:25:51;96165.56;;;12.42;100.00
11085;BME280;5596;46.826;8.650;2023-04-29T06:28:18;96162.19;;;12.52;100.00
11085;BME280;5596;46.826;8.650;2023-04-29T06:30:45;96156.06;;;12.57;100.00
11085;BME280;5596;46.826;8.650;2023-04-29T06:33:13;96155.81;;;12.58;100.00
11085;BME280;5596;46.826;8.650;2023-04-29T06:35:41;96157.44;;;12.59;100.00
11085;BME280;5596;46.826;8.650;2023-04-29T06:38:30;96154.88;;;12.69;100.00
11085;BME280;5596;46.826;8.650;2023-04-29T06:41:20;96153.41;;;12.78;100.00
11085;BME280;5596;46.826;8.650;2023-04-29T06:43:48;96150.78;;;12.83;100.00
11085;BME280;5596;46.826;8.650;2023-04-29T06:46:37;96144.03;;;12.86;100.00
11085;BME280;5596;46.826;8.650;2023-04-29T06:49:16;96150.66;;;12.95;100.00
11085;BME280;5596;46.826;8.650;2023-04-29T06:51:43;96151.47;;;12.96;100.00
11085;BME280;5596;46.826;8.650;2023-04-29T06:54:10;96149.97;;;13.05;100.00
11085;BME280;5596;46.826;8.650;2023-04-29T06:56:37;96144.88;;;13.08;100.00
11085;BME280;5596;46.826;8.650;2023-04-29T06:59:04;96139.56;;;13.13;100.00
11085;BME280;5596;46.826;8.650;2023-04-29T07:01:33;96142.31;;;13.18;100.00
11085;BME280;5596;46.826;8.650;2023-04-29T07:04:00;96143.97;;;13.19;100.00
11085;BME280;5596;46.826;8.650;2023-04-29T07:06:28;96147.38;;;13.32;100.00
11085;BME280;5596;46.826;8.650;2023-04-29T07:08:55;96152.38;;;13.40;100.00
11085;BME280;5596;46.826;8.650;2023-04-29T07:11:22;96138.03;;;13.44;100.00
11085;BME280;5596;46.826;8.650;2023-04-29T07:13:51;96138.09;;;13.49;100.00
11085;BME280;5596;46.826;8.650;2023-04-29T07:16:19;96149.31;;;13.58;100.00
11085;BME280;5596;46.826;8.650;2023-04-29T07:18:46;96142.06;;;13.63;100.00
11085;BME280;5596;46.826;8.650;2023-04-29T07:21:13;96146.22;;;13.71;100.00
11085;BME280;5596;46.826;8.650;2023-04-29T07:23:42;96147.66;;;13.79;100.00
11085;BME280;5596;46.826;8.650;2023-04-29T07:26:09;96150.44;;;13.84;100.00
11085;BME280;5596;46.826;8.650;2023-04-29T07:28:36;96142.56;;;13.87;100.00
11085;BME280;5596;46.826;8.650;2023-04-29T07:31:04;96146.66;;;13.85;100.00
11085;BME280;5596;46.826;8.650;2023-04-29T07:33:32;96155.97;;;13.94;100.00
11085;BME280;5596;46.826;8.650;2023-04-29T07:36:00;96148.91;;;13.93;100.00
11085;BME280;5596;46.826;8.650;2023-04-29T07:38:27;96156.25;;;13.97;100.00
11085;BME280;5596;46.826;8.650;2023-04-29T07:40:57;96153.41;;;14.09;100.00
11085;BME280;5596;46.826;8.650;2023-04-29T07:43:24;96155.91;;;14.16;100.00
11085;BME280;5596;46.826;8.650;2023-04-29T07:45:51;96151.63;;;14.25;100.00
11085;BME280;5596;46.826;8.650;2023-04-29T07:48:18;96156.25;;;14.24;100.00
11085;BME280;5596;46.826;8.650;2023-04-29T07:50:45;96154.44;;;14.35;100.00
11085;BME280;5596;46.826;8.650;2023-04-29T07:53:12;96154.56;;;14.45;100.00
11085;BME280;5596;46.826;8.650;2023-04-29T07:55:40;96155.44;;;14.56;100.00
11085;BME280;5596;46.826;8.650;2023-04-29T07:58:09;96150.34;;;14.64;100.00
11085;BME280;5596;46.826;8.650;2023-04-29T08:00:37;96155.03;;;14.74;100.00
11085;BME280;5596;46.826;8.650;2023-04-29T08:03:05;96153.47;;;14.83;100.00
11085;BME280;5596;46.826;8.650;2023-04-29T08:05:31;96152.44;;;14.89;100.00
11085;BME280;5596;46.826;8.650;2023-04-29T08:07:58;96152.25;;;15.06;100.00
11085;BME280;5596;46.826;8.650;2023-04-29T08:10:25;96147.13;;;15.09;100.00
11085;BME280;5596;46.826;8.650;2023-04-29T08:12:52;96153.69;;;15.13;100.00
11085;BME280;5596;46.826;8.650;2023-04-29T08:15:22;96149.91;;;15.25;100.00
11085;BME280;5596;46.826;8.650;2023-04-29T08:17:49;96145.16;;;15.52;100.00
11085;BME280;5596;46.826;8.650;2023-04-29T08:20:15;96149.09;;;15.92;100.00
11085;BME280;5596;46.826;8.650;2023-04-29T08:22:42;96151.09;;;16.26;100.00
11085;BME280;5596;46.826;8.650;2023-04-29T08:25:09;96156.06;;;16.65;100.00
11085;BME280;5596;46.826;8.650;2023-04-29T08:27:37;96154.66;;;16.98;100.00
11085;BME280;5596;46.826;8.650;2023-04-29T08:30:04;96148.09;;;17.09;100.00
11085;BME280;5596;46.826;8.650;2023-04-29T08:32:34;96144.75;;;17.32;100.00
11085;BME280;5596;46.826;8.650;2023-04-29T08:35:01;96150.16;;;17.48;100.00
11085;BME280;5596;46.826;8.650;2023-04-29T08:37:29;96138.91;;;17.64;100.00
11085;BME280;5596;46.826;8.650;2023-04-29T08:39:55;96132.66;;;17.64;100.00
11085;BME280;5596;46.826;8.650;2023-04-29T08:42:27;96133.72;;;17.68;100.00
11085;BME280;5596;46.826;8.650;2023-04-29T08:44:57;96128.28;;;17.63;100.00
11085;BME280;5596;46.826;8.650;2023-04-29T08:47:25;96127.19;;;17.54;100.00
11085;BME280;5596;46.826;8.650;2023-04-29T08:49:54;96127.19;;;17.64;100.00
11085;BME280;5596;46.826;8.650;2023-04-29T08:52:21;96125.78;;;17.76;100.00
11085;BME280;5596;46.826;8.650;2023-04-29T08:54:48;96125.91;;;17.95;100.00
11085;BME280;5596;46.826;8.650;2023-04-29T08:57:14;96118.31;;;17.92;100.00
11085;BME280;5596;46.826;8.650;2023-04-29T08:59:43;96119.31;;;18.06;100.00
11085;BME280;5596;46.826;8.650;2023-04-29T09:02:10;96119.19;;;18.22;100.00
11085;BME280;5596;46.826;8.650;2023-04-29T09:04:40;96129.28;;;18.26;100.00
11085;BME280;5596;46.826;8.650;2023-04-29T09:07:12;96123.59;;;18.18;100.00
11085;BME280;5596;46.826;8.650;2023-04-29T09:09:40;96109.72;;;18.09;100.00
11085;BME280;5596;46.826;8.650;2023-04-29T09:12:07;96115.38;;;18.23;100.00
11085;BME280;5596;46.826;8.650;2023-04-29T09:14:34;96110.38;;;18.30;100.00
11085;BME280;5596;46.826;8.650;2023-04-29T09:17:01;96108.13;;;18.42;100.00
11085;BME280;5596;46.826;8.650;2023-04-29T09:19:28;96101.72;;;18.57;100.00
11085;BME280;5596;46.826;8.650;2023-04-29T09:21:56;96102.28;;;18.53;100.00
11085;BME280;5596;46.826;8.650;2023-04-29T09:24:25;96100.13;;;18.50;100.00
11085;BME280;5596;46.826;8.650;2023-04-29T09:26:52;96103.09;;;18.54;100.00
11085;BME280;5596;46.826;8.650;2023-04-29T09:29:19;96108.50;;;18.64;100.00
11085;BME280;5596;46.826;8.650;2023-04-29T09:31:46;96114.50;;;18.66;100.00
11085;BME280;5596;46.826;8.650;2023-04-29T09:34:13;96107.38;;;18.70;100.00
11085;BME280;5596;46.826;8.650;2023-04-29T09:36:41;96107.41;;;18.94;100.00
11085;BME280;5596;46.826;8.650;2023-04-29T09:39:11;96103.56;;;18.95;100.00
11085;BME280;5596;46.826;8.650;2023-04-29T09:41:41;96103.69;;;19.09;100.00
11085;BME280;5596;46.826;8.650;2023-04-29T09:44:09;96108.13;;;19.28;100.00
11085;BME280;5596;46.826;8.650;2023-04-29T09:46:36;96105.50;;;19.47;100.00
11085;BME280;5596;46.826;8.650;2023-04-29T09:49:03;96110.44;;;19.40;99.01
11085;BME280;5596;46.826;8.650;2023-04-29T09:51:32;96105.16;;;19.49;89.98
11085;BME280;5596;46.826;8.650;2023-04-29T09:53:59;96099.28;;;19.60;88.36
11085;BME280;5596;46.826;8.650;2023-04-29T09:56:28;96091.69;;;19.76;92.57
11085;BME280;5596;46.826;8.650;2023-04-29T09:59:15;96096.94;;;19.73;87.22
11085;BME280;5596;46.826;8.650;2023-04-29T10:01:42;96090.13;;;19.70;85.24
11085;BME280;5596;46.826;8.650;2023-04-29T10:04:09;96085.34;;;19.81;86.63
11085;BME280;5596;46.826;8.650;2023-04-29T10:06:37;96084.28;;;19.95;85.07
11085;BME280;5596;46.826;8.650;2023-04-29T10:09:05;96082.66;;;20.13;88.20
11085;BME280;5596;46.826;8.650;2023-04-29T10:11:32;96079.69;;;20.28;89.70
11085;BME280;5596;46.826;8.650;2023-04-29T10:14:00;96075.09;;;20.24;81.59
11085;BME280;5596;46.826;8.650;2023-04-29T10:16:30;96072.28;;;20.48;78.60
11085;BME280;5596;46.826;8.650;2023-04-29T10:19:03;96073.13;;;20.62;74.95
11085;BME280;5596;46.826;8.650;2023-04-29T10:21:32;96069.56;;;20.61;71.53
11085;BME280;5596;46.826;8.650;2023-04-29T10:24:00;96072.00;;;20.63;72.27
11085;BME280;5596;46.826;8.650;2023-04-29T10:26:27;96067.56;;;20.67;74.91
11085;BME280;5596;46.826;8.650;2023-04-29T10:28:54;96064.53;;;20.82;75.19
11085;BME280;5596;46.826;8.650;2023-04-29T10:31:24;96046.69;;;20.98;74.02
11085;BME280;5596;46.826;8.650;2023-04-29T10:33:54;96045.56;;;21.13;73.47
11085;BME280;5596;46.826;8.650;2023-04-29T10:36:21;96043.47;;;21.24;72.08
11085;BME280;5596;46.826;8.650;2023-04-29T10:38:49;96037.34;;;21.27;73.40
11085;BME280;5596;46.826;8.650;2023-04-29T10:41:18;96041.84;;;21.23;69.47
11085;BME280;5596;46.826;8.650;2023-04-29T10:43:45;96045.19;;;21.20;69.99
11085;BME280;5596;46.826;8.650;2023-04-29T10:46:16;96037.84;;;21.29;70.12
11085;BME280;5596;46.826;8.650;2023-04-29T10:48:43;96033.16;;;21.15;71.27
11085;BME280;5596;46.826;8.650;2023-04-29T10:51:11;96028.00;;;21.28;70.53
11085;BME280;5596;46.826;8.650;2023-04-29T10:53:58;96022.50;;;21.41;70.59
11085;BME280;5596;46.826;8.650;2023-04-29T10:56:47;96026.13;;;21.64;70.71
11085;BME280;5596;46.826;8.650;2023-04-29T10:59:15;96027.53;;;21.75;70.08
11085;BME280;5596;46.826;8.650;2023-04-29T11:01:43;96017.28;;;21.53;68.70
11085;BME280;5596;46.826;8.650;2023-04-29T11:04:10;96010.78;;;21.08;69.85
11085;BME280;5596;46.826;8.650;2023-04-29T11:06:39;96004.19;;;21.09;74.35
11085;BME280;5596;46.826;8.650;2023-04-29T11:09:07;96011.13;;;21.34;74.68
11085;BME280;5596;46.826;8.650;2023-04-29T11:11:41;96011.34;;;21.74;71.32
11085;BME280;5596;46.826;8.650;2023-04-29T11:14:08;96017.09;;;22.00;70.22
11085;BME280;5596;46.826;8.650;2023-04-29T11:16:36;96009.66;;;21.86;70.69
11085;BME280;5596;46.826;8.650;2023-04-29T11:19:06;96010.19;;;22.02;72.81
11085;BME280;5596;46.826;8.650;2023-04-29T11:21:33;96005.06;;;22.09;71.78
11085;BME280;5596;46.826;8.650;2023-04-29T11:24:02;96006.25;;;22.17;70.62
11085;BME280;5596;46.826;8.650;2023-04-29T11:26:30;95999.66;;;21.68;68.55
11085;BME280;5596;46.826;8.650;2023-04-29T11:28:57;95992.97;;;21.47;72.98
11085;BME280;5596;46.826;8.650;2023-04-29T11:31:29;95990.34;;;21.14;72.01
11085;BME280;5596;46.826;8.650;2023-04-29T11:33:56;95986.06;;;21.36;73.63
11085;BME280;5596;46.826;8.650;2023-04-29T11:36:23;95982.16;;;21.64;75.16
11085;BME280;5596;46.826;8.650;2023-04-29T11:38:50;95980.44;;;21.90;73.82
11085;BME280;5596;46.826;8.650;2023-04-29T11:41:18;95989.00;;;22.03;72.51
11085;BME280;5596;46.826;8.650;2023-04-29T11:43:46;95976.75;;;22.09;70.66
11085;BME280;5596;46.826;8.650;2023-04-29T11:46:13;95981.22;;;22.05;70.74
11085;BME280;5596;46.826;8.650;2023-04-29T11:48:44;95982.19;;;21.86;70.86
11085;BME280;5596;46.826;8.650;2023-04-29T11:51:12;95981.06;;;21.87;70.61
11085;BME280;5596;46.826;8.650;2023-04-29T11:53:39;95987.75;;;21.95;71.84
11085;BME280;5596;46.826;8.650;2023-04-29T11:56:07;95973.56;;;21.79;71.66
11085;BME280;5596;46.826;8.650;2023-04-29T11:58:35;95987.88;;;21.68;72.21
11085;BME280;5596;46.826;8.650;2023-04-29T12:01:02;95979.75;;;21.49;70.93
11085;BME280;5596;46.826;8.650;2023-04-29T12:03:30;95969.06;;;21.47;74.37
11085;BME280;5596;46.826;8.650;2023-04-29T12:05:57;95969.19;;;21.42;74.22
11085;BME280;5596;46.826;8.650;2023-04-29T12:08:25;95964.00;;;21.41;74.02
11085;BME280;5596;46.826;8.650;2023-04-29T12:10:53;95955.06;;;21.35;75.71
11085;BME280;5596;46.826;8.650;2023-04-29T12:13:20;95955.94;;;21.58;76.01
11085;BME280;5596;46.826;8.650;2023-04-29T12:15:50;95956.09;;;21.62;72.34
11085;BME280;5596;46.826;8.650;2023-04-29T12:18:17;95956.94;;;21.62;71.24
11085;BME280;5596;46.826;8.650;2023-04-29T12:20:44;95955.78;;;21.77;72.02
11085;BME280;5596;46.826;8.650;2023-04-29T12:23:12;95959.06;;;21.87;70.41
11085;BME280;5596;46.826;8.650;2023-04-29T12:25:39;95957.06;;;21.79;69.58
11085;BME280;5596;46.826;8.650;2023-04-29T12:28:10;95954.69;;;21.64;70.51
11085;BME280;5596;46.826;8.650;2023-04-29T12:30:37;95956.09;;;21.62;72.22
11085;BME280;5596;46.826;8.650;2023-04-29T12:33:05;95959.50;;;21.45;74.14
11085;BME280;5596;46.826;8.650;2023-04-29T12:35:33;95954.75;;;21.37;73.29
11085;BME280;5596;46.826;8.650;2023-04-29T12:38:00;95958.72;;;21.31;73.61
11085;BME280;5596;46.826;8.650;2023-04-29T12:40:27;95946.94;;;21.17;75.04
11085;BME280;5596;46.826;8.650;2023-04-29T12:42:54;95945.84;;;21.18;74.26
11085;BME280;5596;46.826;8.650;2023-04-29T12:45:31;95947.66;;;21.08;74.32
11085;BME280;5596;46.826;8.650;2023-04-29T12:47:58;95951.13;;;21.00;73.02
11085;BME280;5596;46.826;8.650;2023-04-29T12:50:33;95947.84;;;20.85;72.19
11085;BME280;5596;46.826;8.650;2023-04-29T12:53:00;95953.75;;;20.78;74.02
11085;BME280;5596;46.826;8.650;2023-04-29T12:55:27;95950.41;;;20.81;76.19
11085;BME280;5596;46.826;8.650;2023-04-29T12:57:54;95939.44;;;20.81;76.26
11085;BME280;5596;46.826;8.650;2023-04-29T13:00:21;95950.94;;;20.83;75.87
11085;BME280;5596;46.826;8.650;2023-04-29T13:02:48;95963.09;;;20.77;74.98
11085;BME280;5596;46.826;8.650;2023-04-29T13:05:15;95953.88;;;20.73;74.88
11085;BME280;5596;46.826;8.650;2023-04-29T13:07:43;95960.06;;;20.65;73.74
11085;BME280;5596;46.826;8.650;2023-04-29T13:10:10;95963.91;;;20.64;76.15
11085;BME280;5596;46.826;8.650;2023-04-29T13:12:38;95958.09;;;20.52;75.63